Time;durP1;ratioP1;P1;durP2;ratioP2;P2;SDS_P1;SDS_P2;PMS_P1;PMS_P2;Temp;Humidity;BMP_temperature;BMP_pressure;BME280_temperature;BME280_humidity;BME280_pressure;Samples;Min_cycle;Max_cycle;Signal;HPM_P1;HPM_P2
2023/03/06 00:01:47;;;;;;;;;;;;;;;;;;5049198;28;1269;-51
2023/03/06 00:04:13;;;;;;;;;;;;;;;;;;5048772;28;5012;-54
2023/03/06 00:06:38;;;;;;;;;;;;;;;;;;5046657;28;4822;-54
2023/03/06 00:09:03;;;;;;;;;;;;;;;;;;5048314;28;4847;-53
2023/03/06 00:11:28;;;;;;;;;;;;;;;;;;5036983;28;4499;-52
2023/03/06 00:13:54;;;;;;;;;;;;;;;;;;5033113;28;1160;-51
2023/03/06 00:16:19;;;;;;;;;;;;;;;;;;5045052;28;4989;-53
2023/03/06 00:18:46;;;;;;;;;;;;;;;;;;5046649;28;4736;-53
2023/03/06 00:21:11;;;;;;;;;;;;;;;;;;5039988;28;5166;-55
2023/03/06 00:23:37;;;;;;;;;;;;;;;;;;5048193;28;5158;-55
2023/03/06 00:26:02;;;;;;;;;;;;;;;;;;5036835;28;1931;-55
2023/03/06 00:28:30;;;;;;;;;;;;;;;;;;5028211;28;5124;-54
2023/03/06 00:30:55;;;;;;;;;;;;;;;;;;5048090;28;4929;-54
2023/03/06 00:33:20;;;;;;;;;;;;;;;;;;5047888;28;5020;-55
2023/03/06 00:35:46;;;;;;;;;;;;;;;;;;5047643;28;5238;-54
2023/03/06 00:38:11;;;;;;;;;;;;;;;;;;5043689;28;4479;-53
2023/03/06 00:40:36;;;;;;;;;;;;;;;;;;5032945;28;1350;-55
2023/03/06 00:43:02;;;;;;;;;;;;;;;;;;5046435;28;4504;-55
2023/03/06 00:45:27;;;;;;;;;;;;;;;;;;5047796;28;4456;-56
2023/03/06 00:47:53;;;;;;;;;;;;;;;;;;5046374;28;4494;-53
2023/03/06 00:50:18;;;;;;;;;;;;;;;;;;5047052;28;4497;-52
2023/03/06 00:52:43;;;;;;;;;;;;;;;;;;5042882;28;1114;-54
2023/03/06 00:55:09;;;;;;;;;;;;;;;;;;5041473;28;4467;-53
2023/03/06 00:57:34;;;;;;;;;;;;;;;;;;5047662;28;4456;-54
2023/03/06 00:59:59;;;;;;;;;;;;;;;;;;5047782;28;4452;-55
2023/03/06 01:02:25;;;;;;;;;;;;;;;;;;5047382;28;4724;-51
2023/03/06 01:04:50;;;;;;;;;;;;;;;;;;5048151;28;1159;-51
2023/03/06 01:07:15;;;;;;;;;;;;;;;;;;5038836;28;4567;-54
2023/03/06 01:09:40;;;;;;;;;;;;;;;;;;5040442;28;4456;-54
2023/03/06 01:12:06;;;;;;;;;;;;;;;;;;5047712;28;5489;-53
2023/03/06 01:14:31;;;;;;;;;;;;;;;;;;5047116;28;4507;-54
2023/03/06 01:16:56;;;;;;;;;;;;;;;;;;5039129;28;4893;-56
2023/03/06 01:19:22;;;;;;;;;;;;;;;;;;5046483;28;5273;-54
2023/03/06 01:21:47;;;;;;;;;;;;;;;;;;5032698;28;5034;-56
2023/03/06 01:24:12;;;;;;;;;;;;;;;;;;5037115;28;5537;-54
2023/03/06 01:26:37;;;;;;;;;;;;;;;;;;5041293;28;5184;-54
2023/03/06 01:29:03;;;;;;;;;;;;;;;;;;5046775;28;1232;-55
2023/03/06 01:31:28;;;;;;;;;;;;;;;;;;5046452;28;5315;-47
2023/03/06 01:33:53;;;;;;;;;;;;;;;;;;5042405;28;5535;-54
2023/03/06 01:36:18;;;;;;;;;;;;;;;;;;5038333;28;4666;-55
2023/03/06 01:38:44;;;;;;;;;;;;;;;;;;5045494;28;4638;-56
2023/03/06 01:41:14;;;;;;;;;;;;;;;;;;5050134;28;1252;-55
2023/03/06 01:43:43;;;;;;;;;;;;;;;;;;5051444;28;5088;-54
2023/03/06 01:46:08;;;;;;;;;;;;;;;;;;5049684;28;5032;-53
2023/03/06 01:48:33;;;;;;;;;;;;;;;;;;5050243;28;4535;-54
2023/03/06 01:50:59;;;;;;;;;;;;;;;;;;5043292;28;4479;-50
2023/03/06 01:53:24;;;;;;;;;;;;;;;;;;5045885;28;5001;-53
2023/03/06 01:55:49;;;;;;;;;;;;;;;;;;5033400;28;1237;-56
2023/03/06 01:58:15;;;;;;;;;;;;;;;;;;5042691;28;4429;-55
2023/03/06 02:00:40;;;;;;;;;;;;;;;;;;5041897;28;4530;-56
2023/03/06 02:03:06;;;;;;;;;;;;;;;;;;5043533;28;5109;-56
2023/03/06 02:05:32;;;;;;;;;;;;;;;;;;5044455;28;4625;-54
2023/03/06 02:07:57;;;;;;;;;;;;;;;;;;5049020;28;1922;-51
2023/03/06 02:10:22;;;;;;;;;;;;;;;;;;5049182;28;4542;-54
2023/03/06 02:12:48;;;;;;;;;;;;;;;;;;5049413;28;4458;-53
2023/03/06 02:15:14;;;;;;;;;;;;;;;;;;5050720;28;5023;-54
2023/03/06 02:17:40;;;;;;;;;;;;;;;;;;5044558;28;4929;-55
2023/03/06 02:20:24;;;;;;;;;;;;;;;;;;5038389;28;1317;-55
2023/03/06 02:23:07;;;;;;;;;;;;;;;;;;5050707;28;5026;-54
2023/03/06 02:25:42;;;;;;;;;;;;;;;;;;5050315;28;4562;-54
2023/03/06 02:28:09;;;;;;;;;;;;;;;;;;5051333;28;4525;-55
2023/03/06 02:30:35;;;;;;;;;;;;;;;;;;5050059;28;4998;-54
2023/03/06 02:33:00;;;;;;;;;;;;;;;;;;5036561;28;4554;-52
2023/03/06 02:35:26;;;;;;;;;;;;;;;;;;5049983;28;5082;-56
2023/03/06 02:37:51;;;;;;;;;;;;;;;;;;5047725;28;1416;-55
2023/03/06 02:40:17;;;;;;;;;;;;;;;;;;5045590;28;4609;-54
2023/03/06 02:42:49;;;;;;;;;;;;;;;;;;5048966;28;4504;-54
2023/03/06 02:45:16;;;;;;;;;;;;;;;;;;5050235;28;5044;-52
2023/03/06 02:47:41;;;;;;;;;;;;;;;;;;5042493;28;4662;-54
2023/03/06 02:50:06;;;;;;;;;;;;;;;;;;5049712;28;1315;-56
2023/03/06 02:52:32;;;;;;;;;;;;;;;;;;5048741;28;4553;-55
2023/03/06 02:54:57;;;;;;;;;;;;;;;;;;5048645;28;5051;-55
2023/03/06 02:57:23;;;;;;;;;;;;;;;;;;5050143;28;4479;-51
2023/03/06 02:59:48;;;;;;;;;;;;;;;;;;5047092;28;4476;-51
2023/03/06 03:02:13;;;;;;;;;;;;;;;;;;5038950;28;4462;-51
2023/03/06 03:04:38;;;;;;;;;;;;;;;;;;5050506;28;1140;-53
2023/03/06 03:07:04;;;;;;;;;;;;;;;;;;5041893;28;4493;-54
2023/03/06 03:09:35;;;;;;;;;;;;;;;;;;5048870;28;4614;-47
2023/03/06 03:12:00;;;;;;;;;;;;;;;;;;5049678;28;4797;-47
2023/03/06 03:14:26;;;;;;;;;;;;;;;;;;5048882;28;4965;-54
2023/03/06 03:16:51;;;;;;;;;;;;;;;;;;5042910;28;4826;-54
2023/03/06 03:19:16;;;;;;;;;;;;;;;;;;5050538;28;4716;-54
2023/03/06 03:21:41;;;;;;;;;;;;;;;;;;5049664;28;4446;-55
2023/03/06 03:24:07;;;;;;;;;;;;;;;;;;5049675;28;5073;-54
2023/03/06 03:26:32;;;;;;;;;;;;;;;;;;5048868;28;4570;-53
2023/03/06 03:28:57;;;;;;;;;;;;;;;;;;5044265;28;1427;-54
2023/03/06 03:31:22;;;;;;;;;;;;;;;;;;5048898;28;4467;-55
2023/03/06 03:33:48;;;;;;;;;;;;;;;;;;5049203;28;4666;-53
2023/03/06 03:36:13;;;;;;;;;;;;;;;;;;5047481;28;4675;-54
2023/03/06 03:38:38;;;;;;;;;;;;;;;;;;5042236;28;4450;-55
2023/03/06 03:41:03;;;;;;;;;;;;;;;;;;5045507;28;1238;-54
2023/03/06 03:43:29;;;;;;;;;;;;;;;;;;5034621;28;4606;-51
2023/03/06 03:45:54;;;;;;;;;;;;;;;;;;5039818;28;4421;-50
2023/03/06 03:48:19;;;;;;;;;;;;;;;;;;5038989;28;4559;-52
2023/03/06 03:50:45;;;;;;;;;;;;;;;;;;5045115;28;5055;-53
2023/03/06 03:53:10;;;;;;;;;;;;;;;;;;5047621;28;1132;-53
2023/03/06 03:55:35;;;;;;;;;;;;;;;;;;5038845;28;5147;-50
2023/03/06 03:58:00;;;;;;;;;;;;;;;;;;5031766;28;4684;-53
2023/03/06 04:00:26;;;;;;;;;;;;;;;;;;5044492;28;4502;-54
2023/03/06 04:02:51;;;;;;;;;;;;;;;;;;5038762;28;4627;-53
2023/03/06 04:05:17;;;;;;;;;;;;;;;;;;5043096;28;4454;-54
2023/03/06 04:07:42;;;;;;;;;;;;;;;;;;5043210;28;1922;-54
2023/03/06 04:10:08;;;;;;;;;;;;;;;;;;5021123;28;4499;-54
2023/03/06 04:12:33;;;;;;;;;;;;;;;;;;5040883;28;5219;-52
2023/03/06 04:14:59;;;;;;;;;;;;;;;;;;5046787;28;4500;-54
2023/03/06 04:17:24;;;;;;;;;;;;;;;;;;5044714;28;4816;-54
2023/03/06 04:19:50;;;;;;;;;;;;;;;;;;5048940;28;1108;-48
2023/03/06 04:22:15;;;;;;;;;;;;;;;;;;5048237;28;4458;-52
2023/03/06 04:24:40;;;;;;;;;;;;;;;;;;5045528;28;4454;-50
2023/03/06 04:27:05;;;;;;;;;;;;;;;;;;5043492;28;5173;-53
2023/03/06 04:29:31;;;;;;;;;;;;;;;;;;5048592;28;4456;-53
2023/03/06 04:31:56;;;;;;;;;;;;;;;;;;5048718;28;1108;-52
2023/03/06 04:34:21;;;;;;;;;;;;;;;;;;5047553;28;4604;-52
2023/03/06 04:36:46;;;;;;;;;;;;;;;;;;5045473;28;4992;-54
2023/03/06 04:39:12;;;;;;;;;;;;;;;;;;5039508;28;4679;-53
2023/03/06 04:41:38;;;;;;;;;;;;;;;;;;5042125;28;4653;-53
2023/03/06 04:44:03;;;;;;;;;;;;;;;;;;5048988;28;1228;-48
2023/03/06 04:46:28;;;;;;;;;;;;;;;;;;5046507;28;5058;-51
2023/03/06 04:48:53;;;;;;;;;;;;;;;;;;5048069;28;4546;-55
2023/03/06 04:51:19;;;;;;;;;;;;;;;;;;5046837;28;4624;-56
2023/03/06 04:53:44;;;;;;;;;;;;;;;;;;5039140;28;4496;-52
2023/03/06 04:56:09;;;;;;;;;;;;;;;;;;5045105;28;1162;-55
2023/03/06 04:58:35;;;;;;;;;;;;;;;;;;5048037;28;4446;-54
2023/03/06 05:01:00;;;;;;;;;;;;;;;;;;5047552;28;5520;-55
2023/03/06 05:03:25;;;;;;;;;;;;;;;;;;5048094;28;4971;-56
2023/03/06 05:05:50;;;;;;;;;;;;;;;;;;5045989;28;5104;-56
2023/03/06 05:08:16;;;;;;;;;;;;;;;;;;5038677;28;4676;-55
2023/03/06 05:10:42;;;;;;;;;;;;;;;;;;5042290;28;1153;-54
2023/03/06 05:13:07;;;;;;;;;;;;;;;;;;5047907;28;4946;-55
2023/03/06 05:15:32;;;;;;;;;;;;;;;;;;5047208;28;4487;-55
2023/03/06 05:17:58;;;;;;;;;;;;;;;;;;5048768;28;4993;-56
2023/03/06 05:20:23;;;;;;;;;;;;;;;;;;5043429;28;5078;-52
2023/03/06 05:22:48;;;;;;;;;;;;;;;;;;5044883;28;1324;-54
2023/03/06 05:25:14;;;;;;;;;;;;;;;;;;5047425;28;4537;-53
2023/03/06 05:27:39;;;;;;;;;;;;;;;;;;5046114;28;4981;-56
2023/03/06 05:30:05;;;;;;;;;;;;;;;;;;5045004;28;4491;-51
2023/03/06 05:32:30;;;;;;;;;;;;;;;;;;5046331;28;4646;-55
2023/03/06 05:34:56;;;;;;;;;;;;;;;;;;5045160;28;1198;-56
2023/03/06 05:37:21;;;;;;;;;;;;;;;;;;5038476;28;4986;-55
2023/03/06 05:39:47;;;;;;;;;;;;;;;;;;5035306;28;4967;-52
2023/03/06 05:42:12;;;;;;;;;;;;;;;;;;5048929;28;4594;-53
2023/03/06 05:44:37;;;;;;;;;;;;;;;;;;5046789;28;4972;-51
2023/03/06 05:47:03;;;;;;;;;;;;;;;;;;5047761;28;1913;-53
2023/03/06 05:49:32;;;;;;;;;;;;;;;;;;5046192;28;4584;-51
2023/03/06 05:51:57;;;;;;;;;;;;;;;;;;5041976;28;5109;-51
2023/03/06 05:54:23;;;;;;;;;;;;;;;;;;5045856;28;4999;-53
2023/03/06 05:56:49;;;;;;;;;;;;;;;;;;5044577;28;5007;-52
2023/03/06 05:59:15;;;;;;;;;;;;;;;;;;5049307;28;4738;-56
2023/03/06 06:01:40;;;;;;;;;;;;;;;;;;5045141;28;3174;-53
2023/03/06 06:04:05;;;;;;;;;;;;;;;;;;5048982;28;4448;-53
2023/03/06 06:06:30;;;;;;;;;;;;;;;;;;5040141;28;4961;-54
2023/03/06 06:08:56;;;;;;;;;;;;;;;;;;5042984;28;4489;-53
2023/03/06 06:11:21;;;;;;;;;;;;;;;;;;5048228;28;5169;-54
2023/03/06 06:13:47;;;;;;;;;;;;;;;;;;5044889;28;1224;-53
2023/03/06 06:16:14;;;;;;;;;;;;;;;;;;5044939;28;4820;-55
2023/03/06 06:18:40;;;;;;;;;;;;;;;;;;5048062;28;4601;-53
2023/03/06 06:21:06;;;;;;;;;;;;;;;;;;5052002;28;4605;-48
2023/03/06 06:23:31;;;;;;;;;;;;;;;;;;5052654;28;4509;-55
2023/03/06 06:26:00;;;;;;;;;;;;;;;;;;5046302;28;1630;-54
2023/03/06 06:28:26;;;;;;;;;;;;;;;;;;5069036;28;5606;-55
2023/03/06 06:30:52;;;;;;;;;;;;;;;;;;5039420;28;4477;-48
2023/03/06 06:33:17;;;;;;;;;;;;;;;;;;5050854;28;5047;-55
2023/03/06 06:35:42;;;;;;;;;;;;;;;;;;5044623;28;4689;-55
2023/03/06 06:38:07;;;;;;;;;;;;;;;;;;5042911;28;3462;-53
2023/03/06 06:40:33;;;;;;;;;;;;;;;;;;5043352;28;4619;-54
2023/03/06 06:42:58;;;;;;;;;;;;;;;;;;5045459;28;5044;-55
2023/03/06 06:45:23;;;;;;;;;;;;;;;;;;5043604;28;4432;-52
2023/03/06 06:47:48;;;;;;;;;;;;;;;;;;5041195;28;4548;-51
2023/03/06 06:50:14;;;;;;;;;;;;;;;;;;5050863;28;5100;-51
2023/03/06 06:52:39;;;;;;;;;;;;;;;;;;5051675;28;3454;-49
2023/03/06 06:55:04;;;;;;;;;;;;;;;;;;5048913;28;4652;-51
2023/03/06 06:57:30;;;;;;;;;;;;;;;;;;5048503;28;4906;-52
2023/03/06 06:59:55;;;;;;;;;;;;;;;;;;5032461;28;4616;-53
2023/03/06 07:02:20;;;;;;;;;;;;;;;;;;5046909;28;4527;-49
2023/03/06 07:04:45;;;;;;;;;;;;;;;;;;5048575;28;1143;-52
2023/03/06 07:07:11;;;;;;;;;;;;;;;;;;5041886;28;4714;-47
2023/03/06 07:09:37;;;;;;;;;;;;;;;;;;5044820;28;4458;-51
2023/03/06 07:12:02;;;;;;;;;;;;;;;;;;5046087;28;5030;-50
2023/03/06 07:14:27;;;;;;;;;;;;;;;;;;5042865;28;4611;-51
2023/03/06 07:16:52;;;;;;;;;;;;;;;;;;5043498;28;4751;-51
2023/03/06 07:19:18;;;;;;;;;;;;;;;;;;5051796;28;5056;-51
2023/03/06 07:21:43;;;;;;;;;;;;;;;;;;5045694;28;4905;-50
2023/03/06 07:24:08;;;;;;;;;;;;;;;;;;5050408;28;4448;-49
2023/03/06 07:26:33;;;;;;;;;;;;;;;;;;5047610;28;4653;-53
2023/03/06 07:28:59;;;;;;;;;;;;;;;;;;5043340;28;1091;-50
2023/03/06 07:31:24;;;;;;;;;;;;;;;;;;5047457;28;4433;-51
2023/03/06 07:33:50;;;;;;;;;;;;;;;;;;5039474;28;4629;-50
2023/03/06 07:36:15;;;;;;;;;;;;;;;;;;5047571;28;4497;-52
2023/03/06 07:38:41;;;;;;;;;;;;;;;;;;5048963;28;4428;-50
2023/03/06 07:41:12;;;;;;;;;;;;;;;;;;5037588;28;3441;-50
2023/03/06 07:43:37;;;;;;;;;;;;;;;;;;5035352;28;4959;-49
2023/03/06 07:46:02;;;;;;;;;;;;;;;;;;5043478;28;4395;-53
2023/03/06 07:48:27;;;;;;;;;;;;;;;;;;5045567;28;4967;-49
2023/03/06 07:50:56;;;;;;;;;;;;;;;;;;5042440;28;4501;-53
2023/03/06 07:53:23;;;;;;;;;;;;;;;;;;5043024;28;4471;-52
2023/03/06 07:55:48;;;;;;;;;;;;;;;;;;5035277;28;1409;-51
2023/03/06 07:58:13;;;;;;;;;;;;;;;;;;5032945;28;4507;-51
2023/03/06 08:00:39;;;;;;;;;;;;;;;;;;5045960;28;4467;-51
2023/03/06 08:03:04;;;;;;;;;;;;;;;;;;5044046;28;4590;-50
2023/03/06 08:05:29;;;;;;;;;;;;;;;;;;5043727;28;4658;-49
2023/03/06 08:07:55;;;;;;;;;;;;;;;;;;5034613;28;1906;-52
2023/03/06 08:10:20;;;;;;;;;;;;;;;;;;5039211;28;4668;-51
2023/03/06 08:12:45;;;;;;;;;;;;;;;;;;5043295;28;4477;-51
2023/03/06 08:15:11;;;;;;;;;;;;;;;;;;5048144;28;4463;-50
2023/03/06 08:17:36;;;;;;;;;;;;;;;;;;5045787;28;5269;-50
2023/03/06 08:20:01;;;;;;;;;;;;;;;;;;5049850;28;3219;-50
2023/03/06 08:22:26;;;;;;;;;;;;;;;;;;5031788;28;4604;-54
2023/03/06 08:24:55;;;;;;;;;;;;;;;;;;5037827;28;4818;-52
2023/03/06 08:27:20;;;;;;;;;;;;;;;;;;5043986;28;4509;-53
2023/03/06 08:29:45;;;;;;;;;;;;;;;;;;5043044;28;5099;-50
2023/03/06 08:32:11;;;;;;;;;;;;;;;;;;5047889;28;2016;-52
2023/03/06 08:34:38;;;;;;;;;;;;;;;;;;5045970;28;4435;-49
2023/03/06 08:37:04;;;;;;;;;;;;;;;;;;5039336;28;4471;-51
2023/03/06 08:39:29;;;;;;;;;;;;;;;;;;5043839;28;4645;-49
2023/03/06 08:41:54;;;;;;;;;;;;;;;;;;5041021;28;4497;-49
2023/03/06 08:44:19;;;;;;;;;;;;;;;;;;5044838;28;5047;-55
2023/03/06 08:46:45;;;;;;;;;;;;;;;;;;5034554;28;3188;-47
2023/03/06 08:49:11;;;;;;;;;;;;;;;;;;5033190;28;4755;-52
2023/03/06 08:51:36;;;;;;;;;;;;;;;;;;5034266;28;5092;-53
2023/03/06 08:54:01;;;;;;;;;;;;;;;;;;5028284;28;4719;-52
2023/03/06 08:56:27;;;;;;;;;;;;;;;;;;5034809;28;4679;-57
2023/03/06 08:58:53;;;;;;;;;;;;;;;;;;5027351;28;3276;-57
2023/03/06 09:01:28;;;;;;;;;;;;;;;;;;5028453;28;4765;-56
2023/03/06 09:03:54;;;;;;;;;;;;;;;;;;5032019;28;4955;-53
2023/03/06 09:06:19;;;;;;;;;;;;;;;;;;5038789;28;5036;-53
2023/03/06 09:08:44;;;;;;;;;;;;;;;;;;5027688;28;4502;-55
2023/03/06 09:11:10;;;;;;;;;;;;;;;;;;5027976;28;3261;-66
2023/03/06 09:13:35;;;;;;;;;;;;;;;;;;5027515;28;4594;-63
2023/03/06 09:16:00;;;;;;;;;;;;;;;;;;5025897;28;4881;-63
2023/03/06 09:18:25;;;;;;;;;;;;;;;;;;5029143;28;4742;-63
2023/03/06 09:20:51;;;;;;;;;;;;;;;;;;5027296;28;4593;-63
2023/03/06 09:23:16;;;;;;;;;;;;;;;;;;5027591;28;4598;-64
2023/03/06 09:25:41;;;;;;;;;;;;;;;;;;5030286;28;3093;-63
2023/03/06 09:28:06;;;;;;;;;;;;;;;;;;5027801;28;4426;-63
2023/03/06 09:30:32;;;;;;;;;;;;;;;;;;5027017;28;4631;-62
2023/03/06 09:32:57;;;;;;;;;;;;;;;;;;5031025;28;5036;-64
2023/03/06 09:35:22;;;;;;;;;;;;;;;;;;5025838;28;4678;-64
2023/03/06 09:37:47;;;;;;;;;;;;;;;;;;5031968;28;1456;-64
2023/03/06 09:40:24;;;;;;;;;;;;;;;;;;5029147;28;5052;-65
2023/03/06 09:42:49;;;;;;;;;;;;;;;;;;5025478;28;4910;-65
2023/03/06 09:45:15;;;;;;;;;;;;;;;;;;5027236;28;5062;-64
2023/03/06 09:48:06;;;;;;;;;;;;;;;;;;5030544;28;5245;-66
2023/03/06 09:51:04;;;;;;;;;;;;;;;;;;5031034;28;4622;-64
2023/03/06 09:53:43;;;;;;;;;;;;;;;;;;5035643;28;4644;-64
2023/03/06 09:56:13;;;;;;;;;;;;;;;;;;5034794;28;1749;-62
2023/03/06 09:58:41;;;;;;;;;;;;;;;;;;5034763;28;4558;-63
2023/03/06 10:01:26;;;;;;;;;;;;;;;;;;5034317;28;4419;-64
2023/03/06 10:03:53;;;;;;;;;;;;;;;;;;5037459;28;4459;-63
2023/03/06 10:06:22;;;;;;;;;;;;;;;;;;5035805;28;4474;-65
2023/03/06 10:09:00;;;;;;;;;;;;;;;;;;5031158;28;4734;-64
2023/03/06 10:11:31;;;;;;;;;;;;;;;;;;5028928;28;5009;-64
2023/03/06 10:14:06;;;;;;;;;;;;;;;;;;5032524;28;1255;-62
2023/03/06 10:16:31;;;;;;;;;;;;;;;;;;5031838;28;4711;-62
2023/03/06 10:19:09;;;;;;;;;;;;;;;;;;5030140;28;4492;-63
2023/03/06 10:21:53;;;;;;;;;;;;;;;;;;5031984;28;4701;-62
2023/03/06 10:24:21;;;;;;;;;;;;;;;;;;5036531;28;4503;-62
2023/03/06 10:26:48;;;;;;;;;;;;;;;;;;5032647;28;4513;-61
2023/03/06 10:29:22;;;;;;;;;;;;;;;;;;5032318;28;5127;-62
2023/03/06 10:31:49;;;;;;;;;;;;;;;;;;5036655;28;1211;-60
2023/03/06 10:34:14;;;;;;;;;;;;;;;;;;5065432;28;4986;-63
2023/03/06 10:36:39;;;;;;;;;;;;;;;;;;5034109;28;5146;-65
2023/03/06 10:39:08;;;;;;;;;;;;;;;;;;5035973;28;5128;-66
2023/03/06 10:41:37;;;;;;;;;;;;;;;;;;5033524;28;4825;-64
2023/03/06 10:44:02;;;;;;;;;;;;;;;;;;5029435;28;1328;-64
2023/03/06 10:46:43;;;;;;;;;;;;;;;;;;5030551;28;4467;-62
2023/03/06 10:49:27;;;;;;;;;;;;;;;;;;5031628;28;4647;-63
2023/03/06 10:51:59;;;;;;;;;;;;;;;;;;5031038;28;5064;-62
2023/03/06 10:54:25;;;;;;;;;;;;;;;;;;5030803;28;4530;-62
2023/03/06 10:56:50;;;;;;;;;;;;;;;;;;5030006;28;4486;-62
2023/03/06 10:59:18;;;;;;;;;;;;;;;;;;5031518;28;5146;-59
2023/03/06 11:01:44;;;;;;;;;;;;;;;;;;5033476;28;3277;-64
2023/03/06 11:04:22;;;;;;;;;;;;;;;;;;5028704;28;4712;-59
2023/03/06 11:06:48;;;;;;;;;;;;;;;;;;5033965;28;5065;-66
2023/03/06 11:09:23;;;;;;;;;;;;;;;;;;5032690;28;5185;-66
2023/03/06 11:11:49;;;;;;;;;;;;;;;;;;5031976;28;4510;-67
2023/03/06 11:14:15;;;;;;;;;;;;;;;;;;5033687;28;4505;-67
2023/03/06 11:16:50;;;;;;;;;;;;;;;;;;5013042;28;4792;-66
2023/03/06 11:19:26;;;;;;;;;;;;;;;;;;5028482;28;4963;-66
2023/03/06 11:22:02;;;;;;;;;;;;;;;;;;5029144;28;4694;-66
2023/03/06 11:24:30;;;;;;;;;;;;;;;;;;5027485;28;4451;-67
2023/03/06 11:26:57;;;;;;;;;;;;;;;;;;5026649;28;4685;-66
2023/03/06 11:29:22;;;;;;;;;;;;;;;;;;5026137;28;4595;-65
2023/03/06 11:32:04;;;;;;;;;;;;;;;;;;5029963;28;3471;-65
2023/03/06 11:34:33;;;;;;;;;;;;;;;;;;5027687;28;4708;-65
2023/03/06 11:37:04;;;;;;;;;;;;;;;;;;5030211;28;4455;-65
2023/03/06 11:39:29;;;;;;;;;;;;;;;;;;5032180;28;4648;-65
2023/03/06 11:42:04;;;;;;;;;;;;;;;;;;5028764;28;4843;-65
2023/03/06 11:44:41;;;;;;;;;;;;;;;;;;5034760;28;4553;-65
2023/03/06 11:47:27;;;;;;;;;;;;;;;;;;5030377;28;1967;-66
2023/03/06 11:50:05;;;;;;;;;;;;;;;;;;5012429;28;5011;-66
2023/03/06 11:52:39;;;;;;;;;;;;;;;;;;5035331;28;4928;-66
2023/03/06 11:55:05;;;;;;;;;;;;;;;;;;5041041;28;5123;-65
2023/03/06 11:57:34;;;;;;;;;;;;;;;;;;5027047;28;5021;-64
2023/03/06 12:00:35;;;;;;;;;;;;;;;;;;5026804;28;4464;-66
2023/03/06 12:03:03;;;;;;;;;;;;;;;;;;5030235;28;4576;-62
2023/03/06 12:05:49;;;;;;;;;;;;;;;;;;5029222;28;5036;-64
2023/03/06 12:08:33;;;;;;;;;;;;;;;;;;5027525;28;5115;-65
2023/03/06 12:11:18;;;;;;;;;;;;;;;;;;5034051;28;1292;-65
2023/03/06 12:13:56;;;;;;;;;;;;;;;;;;5034171;28;5150;-66
2023/03/06 12:16:24;;;;;;;;;;;;;;;;;;5048110;28;5200;-65
2023/03/06 12:19:08;;;;;;;;;;;;;;;;;;5037618;28;5631;-66
2023/03/06 12:21:43;;;;;;;;;;;;;;;;;;5033699;28;4865;-65
2023/03/06 12:24:15;;;;;;;;;;;;;;;;;;5036526;28;4478;-65
2023/03/06 12:27:03;;;;;;;;;;;;;;;;;;5038527;28;4537;-65
2023/03/06 12:29:40;;;;;;;;;;;;;;;;;;5064329;28;4503;-65
2023/03/06 12:32:13;;;;;;;;;;;;;;;;;;5037283;28;1089;-65
2023/03/06 12:34:43;;;;;;;;;;;;;;;;;;5075554;28;5264;-64
2023/03/06 12:37:08;;;;;;;;;;;;;;;;;;5038077;28;4648;-66
2023/03/06 12:39:52;;;;;;;;;;;;;;;;;;5039538;28;4428;-66
2023/03/06 12:42:27;;;;;;;;;;;;;;;;;;5035354;28;4472;-66
2023/03/06 12:44:55;;;;;;;;;;;;;;;;;;5046739;28;5092;-66
2023/03/06 12:47:20;;;;;;;;;;;;;;;;;;5047071;28;4526;-66
2023/03/06 12:49:53;;;;;;;;;;;;;;;;;;5038293;28;1214;-66
2023/03/06 12:52:21;;;;;;;;;;;;;;;;;;5028242;28;5217;-66
2023/03/06 12:54:46;;;;;;;;;;;;;;;;;;5039157;28;4585;-65
2023/03/06 12:57:12;;;;;;;;;;;;;;;;;;5068944;28;4946;-65
2023/03/06 12:59:37;;;;;;;;;;;;;;;;;;5048046;28;5078;-66
2023/03/06 13:02:21;;;;;;;;;;;;;;;;;;5041896;28;1086;-66
2023/03/06 13:04:55;;;;;;;;;;;;;;;;;;5054149;28;6393;-66
2023/03/06 13:07:26;;;;;;;;;;;;;;;;;;5037962;28;5210;-65
2023/03/06 13:10:12;;;;;;;;;;;;;;;;;;5037525;28;5099;-63
2023/03/06 13:12:44;;;;;;;;;;;;;;;;;;5041812;28;4480;-65
2023/03/06 13:15:28;;;;;;;;;;;;;;;;;;5046252;28;4708;-65
2023/03/06 13:17:53;;;;;;;;;;;;;;;;;;5039874;28;5142;-65
2023/03/06 13:20:19;;;;;;;;;;;;;;;;;;5036175;28;4503;-65
2023/03/06 13:22:44;;;;;;;;;;;;;;;;;;5046065;28;1156;-65
2023/03/06 13:25:16;;;;;;;;;;;;;;;;;;5042033;28;4473;-65
2023/03/06 13:27:45;;;;;;;;;;;;;;;;;;5040983;28;5077;-66
2023/03/06 13:30:43;;;;;;;;;;;;;;;;;;5049858;28;4988;-66
2023/03/06 13:33:28;;;;;;;;;;;;;;;;;;5027193;28;5041;-66
2023/03/06 13:36:13;;;;;;;;;;;;;;;;;;5056286;28;4455;-66
2023/03/06 13:38:38;;;;;;;;;;;;;;;;;;5022257;28;4455;-65
2023/03/06 13:41:21;;;;;;;;;;;;;;;;;;5027443;28;1112;-66
2023/03/06 13:43:47;;;;;;;;;;;;;;;;;;5022431;28;5054;-66
2023/03/06 13:46:24;;;;;;;;;;;;;;;;;;5021491;28;4676;-65
2023/03/06 13:49:02;;;;;;;;;;;;;;;;;;5061929;28;4606;-66
2023/03/06 13:51:27;;;;;;;;;;;;;;;;;;5043499;28;5051;-65
2023/03/06 13:53:55;;;;;;;;;;;;;;;;;;5035875;28;4486;-65
2023/03/06 13:56:27;;;;;;;;;;;;;;;;;;5045494;28;5057;-66
2023/03/06 13:59:11;;;;;;;;;;;;;;;;;;5073067;28;3200;-67
2023/03/06 14:01:45;;;;;;;;;;;;;;;;;;5038976;28;5113;-70
2023/03/06 14:04:30;;;;;;;;;;;;;;;;;;5043749;28;4551;-65
2023/03/06 14:06:58;;;;;;;;;;;;;;;;;;5033212;28;5072;-65
2023/03/06 14:09:23;;;;;;;;;;;;;;;;;;5045950;28;4509;-64
2023/03/06 14:11:53;;;;;;;;;;;;;;;;;;5040802;28;4549;-65
2023/03/06 14:14:20;;;;;;;;;;;;;;;;;;5044312;28;5263;-66
2023/03/06 14:16:45;;;;;;;;;;;;;;;;;;5034157;28;4714;-65
2023/03/06 14:19:14;;;;;;;;;;;;;;;;;;5043333;28;4699;-66
2023/03/06 14:21:44;;;;;;;;;;;;;;;;;;5045211;28;4708;-65
2023/03/06 14:24:13;;;;;;;;;;;;;;;;;;5043987;28;4667;-66
2023/03/06 14:26:39;;;;;;;;;;;;;;;;;;5042530;28;5060;-66
2023/03/06 14:29:04;;;;;;;;;;;;;;;;;;5036726;28;1110;-65
2023/03/06 14:31:41;;;;;;;;;;;;;;;;;;5078213;28;5139;-66
2023/03/06 14:34:06;;;;;;;;;;;;;;;;;;5043062;28;4885;-65
2023/03/06 14:36:40;;;;;;;;;;;;;;;;;;5045599;28;4685;-65
2023/03/06 14:39:26;;;;;;;;;;;;;;;;;;5038364;28;4881;-65
2023/03/06 14:41:51;;;;;;;;;;;;;;;;;;5039951;28;4661;-66
2023/03/06 14:44:23;;;;;;;;;;;;;;;;;;5029589;28;4678;-65
2023/03/06 14:46:48;;;;;;;;;;;;;;;;;;5035870;28;1930;-65
2023/03/06 14:49:14;;;;;;;;;;;;;;;;;;5042794;28;4534;-65
2023/03/06 14:51:49;;;;;;;;;;;;;;;;;;5046400;28;4977;-65
2023/03/06 14:54:16;;;;;;;;;;;;;;;;;;5040436;28;4760;-65
2023/03/06 14:56:41;;;;;;;;;;;;;;;;;;5034078;28;4472;-65
2023/03/06 14:59:09;;;;;;;;;;;;;;;;;;5034564;28;998;-65
2023/03/06 15:01:36;;;;;;;;;;;;;;;;;;5043463;28;4922;-65
2023/03/06 15:04:01;;;;;;;;;;;;;;;;;;5038241;28;5093;-65
2023/03/06 15:06:32;;;;;;;;;;;;;;;;;;5032287;28;4995;-65
2023/03/06 15:08:59;;;;;;;;;;;;;;;;;;5038804;28;5514;-65
2023/03/06 15:11:24;;;;;;;;;;;;;;;;;;5034155;28;4531;-65
2023/03/06 15:14:02;;;;;;;;;;;;;;;;;;5033870;28;2221;-65
2023/03/06 15:16:28;;;;;;;;;;;;;;;;;;5027486;28;4754;-65
2023/03/06 15:18:57;;;;;;;;;;;;;;;;;;5079999;28;5727;-65
2023/03/06 15:21:22;;;;;;;;;;;;;;;;;;5043601;28;4476;-65
2023/03/06 15:23:49;;;;;;;;;;;;;;;;;;5043851;28;4689;-65
2023/03/06 15:26:17;;;;;;;;;;;;;;;;;;5037219;28;4487;-65
2023/03/06 15:28:42;;;;;;;;;;;;;;;;;;5048724;28;1918;-65
2023/03/06 15:31:17;;;;;;;;;;;;;;;;;;5044607;28;4647;-65
2023/03/06 15:33:42;;;;;;;;;;;;;;;;;;5041748;28;4538;-66
2023/03/06 15:36:17;;;;;;;;;;;;;;;;;;5047259;28;4466;-65
2023/03/06 15:38:45;;;;;;;;;;;;;;;;;;5041778;28;5365;-65
2023/03/06 15:41:29;;;;;;;;;;;;;;;;;;5036202;28;1125;-65
2023/03/06 15:43:55;;;;;;;;;;;;;;;;;;5034955;28;5066;-66
2023/03/06 15:46:21;;;;;;;;;;;;;;;;;;5036623;28;4994;-65
2023/03/06 15:48:52;;;;;;;;;;;;;;;;;;5033593;28;4794;-65
2023/03/06 15:51:18;;;;;;;;;;;;;;;;;;5038619;28;4856;-65
2023/03/06 15:53:43;;;;;;;;;;;;;;;;;;5045285;28;4739;-65
2023/03/06 15:56:09;;;;;;;;;;;;;;;;;;5036343;28;1502;-65
2023/03/06 15:58:34;;;;;;;;;;;;;;;;;;5040526;28;4443;-65
2023/03/06 16:00:59;;;;;;;;;;;;;;;;;;5038734;28;4951;-66
2023/03/06 16:03:24;;;;;;;;;;;;;;;;;;5038232;28;4482;-67
2023/03/06 16:05:50;;;;;;;;;;;;;;;;;;5038405;28;4581;-68
2023/03/06 16:08:15;;;;;;;;;;;;;;;;;;5035189;28;5103;-65
2023/03/06 16:10:40;;;;;;;;;;;;;;;;;;5039074;28;3065;-68
2023/03/06 16:13:08;;;;;;;;;;;;;;;;;;5044032;28;5023;-67
2023/03/06 16:15:40;;;;;;;;;;;;;;;;;;5033470;28;4475;-67
2023/03/06 16:18:05;;;;;;;;;;;;;;;;;;5034903;28;4969;-68
2023/03/06 16:20:31;;;;;;;;;;;;;;;;;;5040767;28;4602;-68
2023/03/06 16:22:57;;;;;;;;;;;;;;;;;;5030338;28;2943;-67
2023/03/06 16:25:22;;;;;;;;;;;;;;;;;;5033140;28;4623;-68
2023/03/06 16:27:57;;;;;;;;;;;;;;;;;;5033138;28;4639;-64
2023/03/06 16:30:23;;;;;;;;;;;;;;;;;;5033741;28;4480;-68
2023/03/06 16:32:48;;;;;;;;;;;;;;;;;;5035453;28;4901;-66
2023/03/06 16:35:13;;;;;;;;;;;;;;;;;;5034797;28;4609;-67
2023/03/06 16:37:41;;;;;;;;;;;;;;;;;;5041664;28;1425;-65
2023/03/06 16:40:23;;;;;;;;;;;;;;;;;;5042765;28;4454;-66
2023/03/06 16:42:49;;;;;;;;;;;;;;;;;;5043066;28;4471;-67
2023/03/06 16:45:14;;;;;;;;;;;;;;;;;;5034263;28;4625;-67
2023/03/06 16:47:40;;;;;;;;;;;;;;;;;;5038692;28;5115;-66
2023/03/06 16:50:05;;;;;;;;;;;;;;;;;;5043738;28;1585;-67
2023/03/06 16:52:30;;;;;;;;;;;;;;;;;;5047561;28;4723;-64
2023/03/06 16:54:55;;;;;;;;;;;;;;;;;;5037208;28;4868;-66
2023/03/06 16:57:21;;;;;;;;;;;;;;;;;;5040689;28;4575;-62
2023/03/06 16:59:46;;;;;;;;;;;;;;;;;;5041348;28;5034;-68
2023/03/06 17:02:11;;;;;;;;;;;;;;;;;;5041334;28;1180;-68
2023/03/06 17:04:37;;;;;;;;;;;;;;;;;;5030717;28;5053;-66
2023/03/06 17:07:02;;;;;;;;;;;;;;;;;;5040341;28;4482;-69
2023/03/06 17:09:28;;;;;;;;;;;;;;;;;;5042329;28;4587;-65